sensor_id;sensor_type;location;lat;lon;timestamp;P1;durP1;ratioP1;P2;durP2;ratioP2
42840;SDS011;28491;46.898;7.660;2023-04-29T00:01:21;2.20;;;1.50;;
42840;SDS011;28491;46.898;7.660;2023-04-29T00:03:47;3.65;;;2.00;;
42840;SDS011;28491;46.898;7.660;2023-04-29T00:06:13;2.13;;;1.10;;
42840;SDS011;28491;46.898;7.660;2023-04-29T00:08:39;2.00;;;1.40;;
42840;SDS011;28491;46.898;7.660;2023-04-29T00:11:04;3.63;;;1.50;;
42840;SDS011;28491;46.898;7.660;2023-04-29T00:13:30;4.68;;;1.80;;
42840;SDS011;28491;46.898;7.660;2023-04-29T00:15:55;4.28;;;1.63;;
42840;SDS011;28491;46.898;7.660;2023-04-29T00:18:21;7.13;;;2.30;;
42840;SDS011;28491;46.898;7.660;2023-04-29T00:20:46;3.72;;;2.50;;
42840;SDS011;28491;46.898;7.660;2023-04-29T00:23:12;4.22;;;2.42;;
42840;SDS011;28491;46.898;7.660;2023-04-29T00:25:37;2.97;;;2.13;;
42840;SDS011;28491;46.898;7.660;2023-04-29T00:28:03;3.88;;;2.17;;
42840;SDS011;28491;46.898;7.660;2023-04-29T00:30:30;3.78;;;1.98;;
42840;SDS011;28491;46.898;7.660;2023-04-29T00:32:56;3.70;;;1.92;;
42840;SDS011;28491;46.898;7.660;2023-04-29T00:35:22;4.78;;;2.40;;
42840;SDS011;28491;46.898;7.660;2023-04-29T00:37:47;4.15;;;2.00;;
42840;SDS011;28491;46.898;7.660;2023-04-29T00:40:13;4.93;;;2.45;;
42840;SDS011;28491;46.898;7.660;2023-04-29T00:42:41;5.17;;;2.03;;
42840;SDS011;28491;46.898;7.660;2023-04-29T00:45:07;4.57;;;1.90;;
42840;SDS011;28491;46.898;7.660;2023-04-29T00:47:33;5.82;;;2.90;;
42840;SDS011;28491;46.898;7.660;2023-04-29T00:49:59;2.30;;;1.65;;
42840;SDS011;28491;46.898;7.660;2023-04-29T00:52:25;4.55;;;1.83;;
42840;SDS011;28491;46.898;7.660;2023-04-29T00:57:20;2.97;;;1.70;;
42840;SDS011;28491;46.898;7.660;2023-04-29T00:59:46;2.63;;;1.65;;
42840;SDS011;28491;46.898;7.660;2023-04-29T01:02:13;5.68;;;1.73;;
42840;SDS011;28491;46.898;7.660;2023-04-29T01:04:39;4.13;;;2.10;;
42840;SDS011;28491;46.898;7.660;2023-04-29T01:07:08;3.40;;;1.60;;
42840;SDS011;28491;46.898;7.660;2023-04-29T01:09:48;3.20;;;2.00;;
42840;SDS011;28491;46.898;7.660;2023-04-29T01:12:49;2.75;;;2.15;;
42840;SDS011;28491;46.898;7.660;2023-04-29T01:15:27;4.65;;;1.73;;
42840;SDS011;28491;46.898;7.660;2023-04-29T01:17:59;3.60;;;1.75;;
42840;SDS011;28491;46.898;7.660;2023-04-29T01:20:30;2.40;;;1.60;;
42840;SDS011;28491;46.898;7.660;2023-04-29T01:22:57;2.53;;;1.58;;
42840;SDS011;28491;46.898;7.660;2023-04-29T01:25:22;2.25;;;1.50;;
42840;SDS011;28491;46.898;7.660;2023-04-29T01:30:46;3.33;;;1.45;;
42840;SDS011;28491;46.898;7.660;2023-04-29T01:36:16;3.03;;;1.92;;
42840;SDS011;28491;46.898;7.660;2023-04-29T01:42:05;8.85;;;2.78;;
42840;SDS011;28491;46.898;7.660;2023-04-29T01:44:39;4.72;;;2.00;;
42840;SDS011;28491;46.898;7.660;2023-04-29T01:47:06;2.78;;;1.65;;
42840;SDS011;28491;46.898;7.660;2023-04-29T01:49:37;3.20;;;1.50;;
42840;SDS011;28491;46.898;7.660;2023-04-29T01:52:03;3.45;;;1.90;;
42840;SDS011;28491;46.898;7.660;2023-04-29T01:54:29;4.50;;;1.73;;
42840;SDS011;28491;46.898;7.660;2023-04-29T01:56:55;3.10;;;2.22;;
42840;SDS011;28491;46.898;7.660;2023-04-29T01:59:22;1.77;;;1.10;;
42840;SDS011;28491;46.898;7.660;2023-04-29T02:01:47;2.58;;;1.58;;
42840;SDS011;28491;46.898;7.660;2023-04-29T02:04:13;4.75;;;1.60;;
42840;SDS011;28491;46.898;7.660;2023-04-29T02:06:39;2.60;;;1.70;;
42840;SDS011;28491;46.898;7.660;2023-04-29T02:09:04;2.53;;;1.80;;
42840;SDS011;28491;46.898;7.660;2023-04-29T02:11:30;2.75;;;1.48;;
42840;SDS011;28491;46.898;7.660;2023-04-29T02:13:55;3.38;;;1.50;;
42840;SDS011;28491;46.898;7.660;2023-04-29T02:16:21;1.88;;;1.20;;
42840;SDS011;28491;46.898;7.660;2023-04-29T02:18:46;2.75;;;1.58;;
42840;SDS011;28491;46.898;7.660;2023-04-29T02:21:12;1.92;;;1.40;;
42840;SDS011;28491;46.898;7.660;2023-04-29T02:23:37;2.90;;;1.75;;
42840;SDS011;28491;46.898;7.660;2023-04-29T02:26:03;5.57;;;2.17;;
42840;SDS011;28491;46.898;7.660;2023-04-29T02:28:33;3.15;;;1.55;;
42840;SDS011;28491;46.898;7.660;2023-04-29T02:30:58;3.97;;;1.63;;
42840;SDS011;28491;46.898;7.660;2023-04-29T02:33:24;4.25;;;1.70;;
42840;SDS011;28491;46.898;7.660;2023-04-29T02:35:50;3.65;;;1.77;;
42840;SDS011;28491;46.898;7.660;2023-04-29T02:38:15;3.33;;;1.75;;
42840;SDS011;28491;46.898;7.660;2023-04-29T02:40:44;4.13;;;1.80;;
42840;SDS011;28491;46.898;7.660;2023-04-29T02:43:11;2.00;;;1.50;;
42840;SDS011;28491;46.898;7.660;2023-04-29T02:45:37;4.07;;;1.48;;
42840;SDS011;28491;46.898;7.660;2023-04-29T02:48:03;2.72;;;1.30;;
42840;SDS011;28491;46.898;7.660;2023-04-29T02:50:29;4.60;;;1.33;;
42840;SDS011;28491;46.898;7.660;2023-04-29T02:52:54;3.13;;;1.63;;
42840;SDS011;28491;46.898;7.660;2023-04-29T02:55:20;5.60;;;2.42;;
42840;SDS011;28491;46.898;7.660;2023-04-29T02:57:45;2.60;;;1.48;;
42840;SDS011;28491;46.898;7.660;2023-04-29T03:00:11;3.42;;;1.98;;
42840;SDS011;28491;46.898;7.660;2023-04-29T03:02:37;3.85;;;1.55;;
42840;SDS011;28491;46.898;7.660;2023-04-29T03:05:03;3.13;;;1.77;;
42840;SDS011;28491;46.898;7.660;2023-04-29T03:07:29;5.03;;;1.80;;
42840;SDS011;28491;46.898;7.660;2023-04-29T03:09:55;3.15;;;1.52;;
42840;SDS011;28491;46.898;7.660;2023-04-29T03:12:21;2.70;;;1.80;;
42840;SDS011;28491;46.898;7.660;2023-04-29T03:14:47;2.90;;;1.63;;
42840;SDS011;28491;46.898;7.660;2023-04-29T03:17:12;3.20;;;1.60;;
42840;SDS011;28491;46.898;7.660;2023-04-29T03:19:39;4.00;;;1.88;;
42840;SDS011;28491;46.898;7.660;2023-04-29T03:22:05;3.15;;;1.75;;
42840;SDS011;28491;46.898;7.660;2023-04-29T03:24:32;6.18;;;1.90;;
42840;SDS011;28491;46.898;7.660;2023-04-29T03:26:57;2.10;;;1.50;;
42840;SDS011;28491;46.898;7.660;2023-04-29T03:29:24;3.85;;;1.92;;
42840;SDS011;28491;46.898;7.660;2023-04-29T03:31:51;2.75;;;1.60;;
42840;SDS011;28491;46.898;7.660;2023-04-29T03:34:17;2.42;;;1.67;;
42840;SDS011;28491;46.898;7.660;2023-04-29T03:36:43;3.70;;;1.95;;
42840;SDS011;28491;46.898;7.660;2023-04-29T03:39:09;5.93;;;2.03;;
42840;SDS011;28491;46.898;7.660;2023-04-29T03:41:36;4.05;;;2.13;;
42840;SDS011;28491;46.898;7.660;2023-04-29T03:44:02;6.78;;;2.00;;
42840;SDS011;28491;46.898;7.660;2023-04-29T03:46:28;3.45;;;1.60;;
42840;SDS011;28491;46.898;7.660;2023-04-29T03:48:53;4.13;;;1.55;;
42840;SDS011;28491;46.898;7.660;2023-04-29T03:51:20;4.78;;;1.58;;
42840;SDS011;28491;46.898;7.660;2023-04-29T03:53:47;2.03;;;1.60;;
42840;SDS011;28491;46.898;7.660;2023-04-29T03:56:12;3.72;;;1.98;;
42840;SDS011;28491;46.898;7.660;2023-04-29T03:58:38;4.13;;;1.88;;
42840;SDS011;28491;46.898;7.660;2023-04-29T04:01:03;2.47;;;1.70;;
42840;SDS011;28491;46.898;7.660;2023-04-29T04:03:29;2.58;;;1.90;;
42840;SDS011;28491;46.898;7.660;2023-04-29T04:05:54;4.05;;;2.20;;
42840;SDS011;28491;46.898;7.660;2023-04-29T04:08:20;3.10;;;1.65;;
42840;SDS011;28491;46.898;7.660;2023-04-29T04:10:45;13.15;;;2.10;;
42840;SDS011;28491;46.898;7.660;2023-04-29T04:13:11;3.35;;;2.08;;
42840;SDS011;28491;46.898;7.660;2023-04-29T04:15:36;3.35;;;2.00;;
42840;SDS011;28491;46.898;7.660;2023-04-29T04:18:02;6.10;;;2.20;;
42840;SDS011;28491;46.898;7.660;2023-04-29T04:20:28;2.95;;;1.70;;
42840;SDS011;28491;46.898;7.660;2023-04-29T04:22:53;3.08;;;2.08;;
42840;SDS011;28491;46.898;7.660;2023-04-29T04:25:19;2.50;;;1.83;;
42840;SDS011;28491;46.898;7.660;2023-04-29T04:27:44;4.05;;;2.00;;
42840;SDS011;28491;46.898;7.660;2023-04-29T04:30:10;3.67;;;2.22;;
42840;SDS011;28491;46.898;7.660;2023-04-29T04:32:36;4.63;;;2.22;;
42840;SDS011;28491;46.898;7.660;2023-04-29T04:35:03;4.18;;;2.30;;
42840;SDS011;28491;46.898;7.660;2023-04-29T04:37:29;3.45;;;1.92;;
42840;SDS011;28491;46.898;7.660;2023-04-29T04:39:54;6.88;;;2.63;;
42840;SDS011;28491;46.898;7.660;2023-04-29T04:42:20;8.60;;;3.50;;
42840;SDS011;28491;46.898;7.660;2023-04-29T04:44:46;5.15;;;3.03;;
42840;SDS011;28491;46.898;7.660;2023-04-29T04:47:12;4.07;;;2.67;;
42840;SDS011;28491;46.898;7.660;2023-04-29T04:49:37;5.75;;;2.85;;
42840;SDS011;28491;46.898;7.660;2023-04-29T04:52:03;4.45;;;2.70;;
42840;SDS011;28491;46.898;7.660;2023-04-29T04:54:29;4.50;;;2.58;;
42840;SDS011;28491;46.898;7.660;2023-04-29T04:56:54;5.75;;;3.03;;
42840;SDS011;28491;46.898;7.660;2023-04-29T04:59:20;5.75;;;3.05;;
42840;SDS011;28491;46.898;7.660;2023-04-29T05:01:46;3.55;;;2.65;;
42840;SDS011;28491;46.898;7.660;2023-04-29T05:04:11;3.00;;;2.25;;
42840;SDS011;28491;46.898;7.660;2023-04-29T05:06:37;4.90;;;2.63;;
42840;SDS011;28491;46.898;7.660;2023-04-29T05:09:02;2.80;;;2.33;;
42840;SDS011;28491;46.898;7.660;2023-04-29T05:11:28;4.35;;;2.70;;
42840;SDS011;28491;46.898;7.660;2023-04-29T05:13:53;4.63;;;2.42;;
42840;SDS011;28491;46.898;7.660;2023-04-29T05:16:19;4.68;;;3.65;;
42840;SDS011;28491;46.898;7.660;2023-04-29T05:18:44;8.13;;;3.70;;
42840;SDS011;28491;46.898;7.660;2023-04-29T05:21:10;7.47;;;5.03;;
42840;SDS011;28491;46.898;7.660;2023-04-29T05:23:36;12.02;;;6.80;;
42840;SDS011;28491;46.898;7.660;2023-04-29T05:26:02;11.88;;;7.22;;
42840;SDS011;28491;46.898;7.660;2023-04-29T05:28:28;9.68;;;6.50;;
42840;SDS011;28491;46.898;7.660;2023-04-29T05:30:53;11.38;;;6.80;;
42840;SDS011;28491;46.898;7.660;2023-04-29T05:33:19;7.53;;;5.00;;
42840;SDS011;28491;46.898;7.660;2023-04-29T05:35:45;5.38;;;3.72;;
42840;SDS011;28491;46.898;7.660;2023-04-29T05:38:10;5.20;;;3.20;;
42840;SDS011;28491;46.898;7.660;2023-04-29T05:40:36;5.40;;;3.47;;
42840;SDS011;28491;46.898;7.660;2023-04-29T05:43:02;9.30;;;2.90;;
42840;SDS011;28491;46.898;7.660;2023-04-29T05:45:27;8.23;;;4.05;;
42840;SDS011;28491;46.898;7.660;2023-04-29T05:47:53;4.30;;;3.50;;
42840;SDS011;28491;46.898;7.660;2023-04-29T05:50:18;6.00;;;4.13;;
42840;SDS011;28491;46.898;7.660;2023-04-29T05:52:44;5.65;;;3.70;;
42840;SDS011;28491;46.898;7.660;2023-04-29T05:55:09;6.57;;;4.13;;
42840;SDS011;28491;46.898;7.660;2023-04-29T05:57:35;4.97;;;3.80;;
42840;SDS011;28491;46.898;7.660;2023-04-29T06:00:00;7.30;;;4.78;;
42840;SDS011;28491;46.898;7.660;2023-04-29T06:02:27;5.30;;;3.58;;
42840;SDS011;28491;46.898;7.660;2023-04-29T06:04:53;6.25;;;4.07;;
42840;SDS011;28491;46.898;7.660;2023-04-29T06:07:18;11.85;;;6.15;;
42840;SDS011;28491;46.898;7.660;2023-04-29T06:09:44;10.07;;;8.45;;
42840;SDS011;28491;46.898;7.660;2023-04-29T06:12:10;4.43;;;3.30;;
42840;SDS011;28491;46.898;7.660;2023-04-29T06:14:35;4.30;;;3.65;;
42840;SDS011;28491;46.898;7.660;2023-04-29T06:17:01;8.95;;;6.95;;
42840;SDS011;28491;46.898;7.660;2023-04-29T06:19:27;9.75;;;6.88;;
42840;SDS011;28491;46.898;7.660;2023-04-29T06:21:53;6.75;;;4.55;;
42840;SDS011;28491;46.898;7.660;2023-04-29T06:24:19;3.83;;;3.00;;
42840;SDS011;28491;46.898;7.660;2023-04-29T06:26:45;5.82;;;2.50;;
42840;SDS011;28491;46.898;7.660;2023-04-29T06:29:10;5.55;;;3.35;;
42840;SDS011;28491;46.898;7.660;2023-04-29T06:31:36;3.08;;;2.10;;
42840;SDS011;28491;46.898;7.660;2023-04-29T06:34:02;4.00;;;2.45;;
42840;SDS011;28491;46.898;7.660;2023-04-29T06:36:27;3.50;;;2.17;;
42840;SDS011;28491;46.898;7.660;2023-04-29T06:38:53;4.00;;;2.65;;
42840;SDS011;28491;46.898;7.660;2023-04-29T06:41:19;3.17;;;2.60;;
42840;SDS011;28491;46.898;7.660;2023-04-29T06:43:45;3.85;;;2.72;;
42840;SDS011;28491;46.898;7.660;2023-04-29T06:46:10;4.28;;;2.83;;
42840;SDS011;28491;46.898;7.660;2023-04-29T06:48:37;5.70;;;2.70;;
42840;SDS011;28491;46.898;7.660;2023-04-29T06:51:02;4.53;;;4.07;;
42840;SDS011;28491;46.898;7.660;2023-04-29T06:53:28;12.98;;;9.82;;
42840;SDS011;28491;46.898;7.660;2023-04-29T06:55:53;8.68;;;6.35;;
42840;SDS011;28491;46.898;7.660;2023-04-29T06:58:19;3.33;;;2.38;;
42840;SDS011;28491;46.898;7.660;2023-04-29T07:00:45;3.58;;;1.88;;
42840;SDS011;28491;46.898;7.660;2023-04-29T07:03:12;2.42;;;1.42;;
42840;SDS011;28491;46.898;7.660;2023-04-29T07:05:38;1.67;;;1.30;;
42840;SDS011;28491;46.898;7.660;2023-04-29T07:08:06;3.00;;;1.42;;
42840;SDS011;28491;46.898;7.660;2023-04-29T07:10:32;2.40;;;1.33;;
42840;SDS011;28491;46.898;7.660;2023-04-29T07:12:58;1.85;;;1.40;;
42840;SDS011;28491;46.898;7.660;2023-04-29T07:15:24;2.47;;;1.73;;
42840;SDS011;28491;46.898;7.660;2023-04-29T07:17:51;3.67;;;1.58;;
42840;SDS011;28491;46.898;7.660;2023-04-29T07:20:16;2.95;;;1.73;;
42840;SDS011;28491;46.898;7.660;2023-04-29T07:22:42;7.55;;;5.72;;
42840;SDS011;28491;46.898;7.660;2023-04-29T07:25:07;5.75;;;3.30;;
42840;SDS011;28491;46.898;7.660;2023-04-29T07:27:34;2.95;;;1.88;;
42840;SDS011;28491;46.898;7.660;2023-04-29T07:30:00;6.55;;;4.90;;
42840;SDS011;28491;46.898;7.660;2023-04-29T07:32:26;3.00;;;2.55;;
42840;SDS011;28491;46.898;7.660;2023-04-29T07:34:52;4.25;;;1.85;;
42840;SDS011;28491;46.898;7.660;2023-04-29T07:37:18;2.78;;;2.10;;
42840;SDS011;28491;46.898;7.660;2023-04-29T07:39:44;2.28;;;1.80;;
42840;SDS011;28491;46.898;7.660;2023-04-29T07:42:11;2.20;;;1.70;;
42840;SDS011;28491;46.898;7.660;2023-04-29T07:44:36;3.40;;;2.05;;
42840;SDS011;28491;46.898;7.660;2023-04-29T07:47:02;2.90;;;2.00;;
42840;SDS011;28491;46.898;7.660;2023-04-29T07:49:28;3.28;;;2.45;;
42840;SDS011;28491;46.898;7.660;2023-04-29T07:51:53;2.92;;;2.08;;
42840;SDS011;28491;46.898;7.660;2023-04-29T07:54:18;2.05;;;1.77;;
42840;SDS011;28491;46.898;7.660;2023-04-29T07:56:44;2.72;;;2.00;;
42840;SDS011;28491;46.898;7.660;2023-04-29T07:59:10;3.30;;;1.80;;
42840;SDS011;28491;46.898;7.660;2023-04-29T08:01:36;1.85;;;1.45;;
42840;SDS011;28491;46.898;7.660;2023-04-29T08:04:02;4.03;;;1.95;;
42840;SDS011;28491;46.898;7.660;2023-04-29T08:06:27;2.80;;;1.30;;
42840;SDS011;28491;46.898;7.660;2023-04-29T08:08:54;2.10;;;1.20;;
42840;SDS011;28491;46.898;7.660;2023-04-29T08:11:20;1.50;;;1.00;;
42840;SDS011;28491;46.898;7.660;2023-04-29T08:13:48;1.65;;;1.13;;
42840;SDS011;28491;46.898;7.660;2023-04-29T08:16:14;1.80;;;1.17;;
42840;SDS011;28491;46.898;7.660;2023-04-29T08:18:39;5.32;;;0.77;;
42840;SDS011;28491;46.898;7.660;2023-04-29T08:21:05;0.68;;;0.50;;
42840;SDS011;28491;46.898;7.660;2023-04-29T08:23:31;1.00;;;0.70;;
42840;SDS011;28491;46.898;7.660;2023-04-29T08:25:57;1.30;;;0.70;;
42840;SDS011;28491;46.898;7.660;2023-04-29T08:28:22;2.85;;;0.82;;
42840;SDS011;28491;46.898;7.660;2023-04-29T08:30:48;1.70;;;0.75;;
42840;SDS011;28491;46.898;7.660;2023-04-29T08:33:14;3.65;;;0.90;;
42840;SDS011;28491;46.898;7.660;2023-04-29T08:35:40;2.58;;;1.75;;
42840;SDS011;28491;46.898;7.660;2023-04-29T08:38:07;2.33;;;1.30;;
42840;SDS011;28491;46.898;7.660;2023-04-29T08:40:33;2.78;;;0.98;;
42840;SDS011;28491;46.898;7.660;2023-04-29T08:43:05;2.38;;;0.60;;
42840;SDS011;28491;46.898;7.660;2023-04-29T08:45:33;1.90;;;1.00;;
42840;SDS011;28491;46.898;7.660;2023-04-29T08:48:01;3.15;;;0.70;;
42840;SDS011;28491;46.898;7.660;2023-04-29T08:50:30;0.73;;;0.45;;
42840;SDS011;28491;46.898;7.660;2023-04-29T08:52:56;1.77;;;0.47;;
42840;SDS011;28491;46.898;7.660;2023-04-29T08:55:23;1.83;;;0.73;;
42840;SDS011;28491;46.898;7.660;2023-04-29T08:57:49;1.50;;;0.55;;
42840;SDS011;28491;46.898;7.660;2023-04-29T09:00:17;8.77;;;0.40;;
42840;SDS011;28491;46.898;7.660;2023-04-29T09:02:44;1.45;;;0.70;;
42840;SDS011;28491;46.898;7.660;2023-04-29T09:05:14;2.97;;;0.65;;
42840;SDS011;28491;46.898;7.660;2023-04-29T09:07:40;1.08;;;0.47;;
42840;SDS011;28491;46.898;7.660;2023-04-29T09:10:06;0.50;;;0.40;;
42840;SDS011;28491;46.898;7.660;2023-04-29T09:12:32;0.35;;;0.20;;
42840;SDS011;28491;46.898;7.660;2023-04-29T09:14:59;0.75;;;0.40;;
42840;SDS011;28491;46.898;7.660;2023-04-29T09:22:51;1.65;;;0.40;;
42840;SDS011;28491;46.898;7.660;2023-04-29T09:25:18;0.55;;;0.32;;
42840;SDS011;28491;46.898;7.660;2023-04-29T09:27:44;2.30;;;0.47;;
42840;SDS011;28491;46.898;7.660;2023-04-29T09:30:10;1.13;;;0.50;;
42840;SDS011;28491;46.898;7.660;2023-04-29T09:32:37;1.13;;;0.57;;
42840;SDS011;28491;46.898;7.660;2023-04-29T09:38:07;0.82;;;0.38;;
42840;SDS011;28491;46.898;7.660;2023-04-29T09:40:34;0.50;;;0.20;;
42840;SDS011;28491;46.898;7.660;2023-04-29T09:43:00;0.52;;;0.30;;
42840;SDS011;28491;46.898;7.660;2023-04-29T09:48:02;0.30;;;0.10;;
42840;SDS011;28491;46.898;7.660;2023-04-29T09:50:28;0.88;;;0.22;;
42840;SDS011;28491;46.898;7.660;2023-04-29T09:52:55;3.13;;;0.25;;
42840;SDS011;28491;46.898;7.660;2023-04-29T09:55:20;0.45;;;0.20;;
42840;SDS011;28491;46.898;7.660;2023-04-29T09:57:46;0.88;;;0.40;;
42840;SDS011;28491;46.898;7.660;2023-04-29T10:00:11;0.47;;;0.30;;
42840;SDS011;28491;46.898;7.660;2023-04-29T10:02:40;2.70;;;0.45;;
42840;SDS011;28491;46.898;7.660;2023-04-29T10:05:07;2.42;;;0.30;;
42840;SDS011;28491;46.898;7.660;2023-04-29T10:07:34;0.80;;;0.30;;
42840;SDS011;28491;46.898;7.660;2023-04-29T10:10:03;0.55;;;0.20;;
42840;SDS011;28491;46.898;7.660;2023-04-29T10:12:30;0.40;;;0.25;;
42840;SDS011;28491;46.898;7.660;2023-04-29T10:17:44;0.82;;;0.30;;
42840;SDS011;28491;46.898;7.660;2023-04-29T10:20:14;1.42;;;0.30;;
42840;SDS011;28491;46.898;7.660;2023-04-29T10:22:46;0.75;;;0.20;;
42840;SDS011;28491;46.898;7.660;2023-04-29T10:25:16;0.43;;;0.25;;
42840;SDS011;28491;46.898;7.660;2023-04-29T10:27:44;0.73;;;0.50;;
42840;SDS011;28491;46.898;7.660;2023-04-29T10:30:11;0.47;;;0.35;;
42840;SDS011;28491;46.898;7.660;2023-04-29T10:32:41;0.15;;;0.15;;
42840;SDS011;28491;46.898;7.660;2023-04-29T10:35:08;0.52;;;0.32;;
42840;SDS011;28491;46.898;7.660;2023-04-29T10:37:35;1.20;;;0.43;;
42840;SDS011;28491;46.898;7.660;2023-04-29T10:42:58;0.90;;;0.30;;
42840;SDS011;28491;46.898;7.660;2023-04-29T10:45:24;0.45;;;0.20;;
42840;SDS011;28491;46.898;7.660;2023-04-29T10:51:12;1.63;;;0.40;;
42840;SDS011;28491;46.898;7.660;2023-04-29T10:53:13;0.43;;;0.30;;
42840;SDS011;28491;46.898;7.660;2023-04-29T10:55:46;0.30;;;0.30;;
42840;SDS011;28491;46.898;7.660;2023-04-29T11:01:16;0.52;;;0.40;;
42840;SDS011;28491;46.898;7.660;2023-04-29T11:03:46;1.95;;;0.40;;
42840;SDS011;28491;46.898;7.660;2023-04-29T11:06:21;1.23;;;0.60;;
42840;SDS011;28491;46.898;7.660;2023-04-29T11:08:58;0.87;;;0.50;;
42840;SDS011;28491;46.898;7.660;2023-04-29T11:14:36;1.23;;;0.90;;
42840;SDS011;28491;46.898;7.660;2023-04-29T11:17:08;0.73;;;0.50;;
42840;SDS011;28491;46.898;7.660;2023-04-29T11:19:35;0.77;;;0.50;;
42840;SDS011;28491;46.898;7.660;2023-04-29T11:22:09;1.65;;;0.52;;
42840;SDS011;28491;46.898;7.660;2023-04-29T11:27:26;1.17;;;0.63;;
42840;SDS011;28491;46.898;7.660;2023-04-29T11:29:57;5.05;;;0.73;;
42840;SDS011;28491;46.898;7.660;2023-04-29T11:32:26;1.00;;;0.73;;
42840;SDS011;28491;46.898;7.660;2023-04-29T12:09:42;4.50;;;0.82;;
42840;SDS011;28491;46.898;7.660;2023-04-29T12:12:08;2.38;;;0.90;;
42840;SDS011;28491;46.898;7.660;2023-04-29T12:14:34;1.67;;;1.10;;
42840;SDS011;28491;46.898;7.660;2023-04-29T12:17:01;1.83;;;0.93;;
42840;SDS011;28491;46.898;7.660;2023-04-29T12:19:26;3.33;;;1.60;;
42840;SDS011;28491;46.898;7.660;2023-04-29T12:21:52;4.53;;;0.80;;
42840;SDS011;28491;46.898;7.660;2023-04-29T12:24:19;3.30;;;1.00;;
42840;SDS011;28491;46.898;7.660;2023-04-29T12:26:45;0.98;;;0.70;;
42840;SDS011;28491;46.898;7.660;2023-04-29T12:29:11;0.82;;;0.63;;
42840;SDS011;28491;46.898;7.660;2023-04-29T12:31:37;2.25;;;1.10;;
42840;SDS011;28491;46.898;7.660;2023-04-29T12:34:03;0.65;;;0.50;;
42840;SDS011;28491;46.898;7.660;2023-04-29T12:36:30;1.00;;;0.70;;
42840;SDS011;28491;46.898;7.660;2023-04-29T12:38:56;0.88;;;0.60;;
42840;SDS011;28491;46.898;7.660;2023-04-29T12:41:39;3.67;;;1.02;;
42840;SDS011;28491;46.898;7.660;2023-04-29T12:44:05;3.95;;;1.00;;
42840;SDS011;28491;46.898;7.660;2023-04-29T12:46:35;0.70;;;0.68;;
42840;SDS011;28491;46.898;7.660;2023-04-29T12:49:05;1.92;;;0.73;;
42840;SDS011;28491;46.898;7.660;2023-04-29T12:51:31;1.35;;;0.82;;
42840;SDS011;28491;46.898;7.660;2023-04-29T12:54:01;1.95;;;0.57;;
42840;SDS011;28491;46.898;7.660;2023-04-29T12:56:28;2.05;;;0.60;;
42840;SDS011;28491;46.898;7.660;2023-04-29T12:58:55;2.28;;;0.50;;
42840;SDS011;28491;46.898;7.660;2023-04-29T13:01:21;3.88;;;0.63;;
42840;SDS011;28491;46.898;7.660;2023-04-29T13:03:46;1.15;;;0.65;;
42840;SDS011;28491;46.898;7.660;2023-04-29T13:06:13;1.88;;;1.30;;
42840;SDS011;28491;46.898;7.660;2023-04-29T13:08:39;2.25;;;1.10;;
42840;SDS011;28491;46.898;7.660;2023-04-29T13:11:04;1.27;;;0.68;;
42840;SDS011;28491;46.898;7.660;2023-04-29T13:13:31;0.95;;;0.80;;
42840;SDS011;28491;46.898;7.660;2023-04-29T13:15:56;0.88;;;0.68;;
42840;SDS011;28491;46.898;7.660;2023-04-29T13:18:22;1.42;;;0.73;;
42840;SDS011;28491;46.898;7.660;2023-04-29T13:20:47;2.40;;;1.58;;
42840;SDS011;28491;46.898;7.660;2023-04-29T13:23:13;1.48;;;1.17;;
42840;SDS011;28491;46.898;7.660;2023-04-29T13:25:38;1.15;;;0.40;;
42840;SDS011;28491;46.898;7.660;2023-04-29T13:28:04;1.67;;;0.88;;
42840;SDS011;28491;46.898;7.660;2023-04-29T13:30:29;1.00;;;0.70;;
42840;SDS011;28491;46.898;7.660;2023-04-29T13:32:55;1.63;;;0.80;;
42840;SDS011;28491;46.898;7.660;2023-04-29T13:35:21;1.35;;;0.68;;
42840;SDS011;28491;46.898;7.660;2023-04-29T13:37:46;1.30;;;0.68;;
42840;SDS011;28491;46.898;7.660;2023-04-29T13:40:13;2.92;;;1.38;;
42840;SDS011;28491;46.898;7.660;2023-04-29T13:42:38;3.22;;;1.60;;
42840;SDS011;28491;46.898;7.660;2023-04-29T13:45:04;2.35;;;0.98;;
42840;SDS011;28491;46.898;7.660;2023-04-29T13:47:30;1.10;;;0.77;;
42840;SDS011;28491;46.898;7.660;2023-04-29T13:49:55;1.23;;;0.65;;
42840;SDS011;28491;46.898;7.660;2023-04-29T13:52:21;1.98;;;1.20;;
42840;SDS011;28491;46.898;7.660;2023-04-29T13:54:46;2.65;;;1.30;;
42840;SDS011;28491;46.898;7.660;2023-04-29T13:57:12;1.20;;;0.80;;
42840;SDS011;28491;46.898;7.660;2023-04-29T13:59:38;1.65;;;0.75;;
42840;SDS011;28491;46.898;7.660;2023-04-29T14:02:03;1.90;;;0.80;;
42840;SDS011;28491;46.898;7.660;2023-04-29T14:04:29;2.38;;;0.75;;
42840;SDS011;28491;46.898;7.660;2023-04-29T14:06:55;2.97;;;1.25;;
42840;SDS011;28491;46.898;7.660;2023-04-29T14:09:21;2.20;;;1.02;;
42840;SDS011;28491;46.898;7.660;2023-04-29T14:11:47;1.75;;;1.23;;
42840;SDS011;28491;46.898;7.660;2023-04-29T14:14:13;4.30;;;1.58;;
42840;SDS011;28491;46.898;7.660;2023-04-29T14:16:39;1.35;;;0.90;;
42840;SDS011;28491;46.898;7.660;2023-04-29T14:19:05;2.30;;;1.25;;
42840;SDS011;28491;46.898;7.660;2023-04-29T14:21:31;1.60;;;1.20;;
42840;SDS011;28491;46.898;7.660;2023-04-29T14:24:01;2.22;;;1.10;;
42840;SDS011;28491;46.898;7.660;2023-04-29T14:26:27;2.13;;;1.13;;
42840;SDS011;28491;46.898;7.660;2023-04-29T14:28:56;3.58;;;1.23;;
42840;SDS011;28491;46.898;7.660;2023-04-29T14:31:27;2.38;;;1.13;;
42840;SDS011;28491;46.898;7.660;2023-04-29T14:33:54;3.25;;;1.20;;
42840;SDS011;28491;46.898;7.660;2023-04-29T14:36:20;4.22;;;1.00;;
42840;SDS011;28491;46.898;7.660;2023-04-29T14:38:46;3.80;;;1.25;;
42840;SDS011;28491;46.898;7.660;2023-04-29T14:41:11;1.65;;;1.13;;
42840;SDS011;28491;46.898;7.660;2023-04-29T14:43:37;3.42;;;1.17;;
42840;SDS011;28491;46.898;7.660;2023-04-29T14:46:03;2.22;;;1.15;;
42840;SDS011;28491;46.898;7.660;2023-04-29T14:48:29;4.05;;;1.30;;
42840;SDS011;28491;46.898;7.660;2023-04-29T14:50:54;2.83;;;1.23;;
42840;SDS011;28491;46.898;7.660;2023-04-29T14:53:20;4.05;;;1.20;;
42840;SDS011;28491;46.898;7.660;2023-04-29T14:55:46;3.83;;;1.40;;
42840;SDS011;28491;46.898;7.660;2023-04-29T14:58:13;1.90;;;1.30;;
42840;SDS011;28491;46.898;7.660;2023-04-29T15:00:39;2.15;;;1.40;;
42840;SDS011;28491;46.898;7.660;2023-04-29T15:03:04;1.42;;;1.08;;
42840;SDS011;28491;46.898;7.660;2023-04-29T15:05:30;3.05;;;1.38;;
42840;SDS011;28491;46.898;7.660;2023-04-29T15:07:55;1.63;;;1.35;;
42840;SDS011;28491;46.898;7.660;2023-04-29T15:10:22;7.10;;;1.75;;
42840;SDS011;28491;46.898;7.660;2023-04-29T15:12:48;1.45;;;1.00;;
42840;SDS011;28491;46.898;7.660;2023-04-29T15:15:15;9.30;;;1.55;;
42840;SDS011;28491;46.898;7.660;2023-04-29T15:17:41;2.00;;;1.48;;
42840;SDS011;28491;46.898;7.660;2023-04-29T15:20:07;2.40;;;1.42;;
42840;SDS011;28491;46.898;7.660;2023-04-29T15:22:33;5.40;;;2.05;;
42840;SDS011;28491;46.898;7.660;2023-04-29T15:24:59;6.35;;;3.30;;
42840;SDS011;28491;46.898;7.660;2023-04-29T15:27:25;5.80;;;3.22;;
42840;SDS011;28491;46.898;7.660;2023-04-29T15:29:50;6.60;;;3.15;;
42840;SDS011;28491;46.898;7.660;2023-04-29T15:32:18;8.43;;;2.95;;
42840;SDS011;28491;46.898;7.660;2023-04-29T15:34:43;4.00;;;1.95;;
42840;SDS011;28491;46.898;7.660;2023-04-29T15:37:09;5.55;;;2.28;;
42840;SDS011;28491;46.898;7.660;2023-04-29T15:39:35;3.83;;;2.15;;
42840;SDS011;28491;46.898;7.660;2023-04-29T15:42:00;4.85;;;2.13;;
42840;SDS011;28491;46.898;7.660;2023-04-29T15:44:26;4.05;;;2.60;;
42840;SDS011;28491;46.898;7.660;2023-04-29T15:46:51;1.77;;;1.58;;
42840;SDS011;28491;46.898;7.660;2023-04-29T15:49:17;3.15;;;1.50;;
42840;SDS011;28491;46.898;7.660;2023-04-29T15:51:42;5.75;;;3.78;;
42840;SDS011;28491;46.898;7.660;2023-04-29T15:54:08;3.63;;;1.65;;
42840;SDS011;28491;46.898;7.660;2023-04-29T15:56:34;6.22;;;1.55;;
42840;SDS011;28491;46.898;7.660;2023-04-29T15:59:00;2.45;;;1.60;;